Time;durP1;ratioP1;P1;durP2;ratioP2;P2;SDS_P1;SDS_P2;PMS_P1;PMS_P2;Temp;Humidity;BMP_temperature;BMP_pressure;BME280_temperature;BME280_humidity;BME280_pressure;Samples;Min_cycle;Max_cycle;Signal;HPM_P1;HPM_P2
2023/03/23 00:00:15;;;;;;;26.17;23.40;;;;;;;10.97;100.00;101604.56;2080151;28;20723;-63
2023/03/23 00:01:20;;;;;;;32.73;24.03;;;;;;;10.91;100.00;101615.31;2073367;28;20202;-63
2023/03/23 00:02:28;;;;;;;30.73;24.73;;;;;;;10.87;100.00;101600.69;2073487;28;20251;-63
2023/03/23 00:03:31;;;;;;;35.40;30.97;;;;;;;10.85;100.00;101602.28;2073405;28;20877;-63
2023/03/23 00:04:32;;;;;;;37.03;33.10;;;;;;;10.74;100.00;101596.88;2080807;28;20451;-63
2023/03/23 00:05:32;;;;;;;40.53;33.97;;;;;;;10.84;100.00;101617.38;2081026;28;20534;-63
2023/03/23 00:06:34;;;;;;;41.53;34.27;;;;;;;10.88;100.00;101607.03;2081043;28;20242;-63
2023/03/23 00:07:35;;;;;;;38.77;33.23;;;;;;;10.36;100.00;101517.59;2075550;28;20255;-63
2023/03/23 00:08:44;;;;;;;34.67;26.67;;;;;;;10.91;100.00;101604.22;2073303;28;20855;-63
2023/03/23 00:09:46;;;;;;;30.47;26.07;;;;;;;10.94;100.00;101610.94;2075886;28;20826;-63
2023/03/23 00:10:56;;;;;;;27.83;24.83;;;;;;;10.86;100.00;101588.03;2078926;28;20545;-63
2023/03/23 00:12:04;;;;;;;31.03;26.80;;;;;;;10.56;100.00;101543.56;2075229;28;20973;-63
2023/03/23 00:13:05;;;;;;;31.63;25.43;;;;;;;10.91;100.00;101601.44;2081314;28;20857;-63
2023/03/23 00:14:12;;;;;;;31.67;25.30;;;;;;;10.93;100.00;101595.50;2080794;28;20412;-63
2023/03/23 00:15:16;;;;;;;31.70;25.73;;;;;;;10.81;100.00;101580.16;2081095;28;20440;-63
2023/03/23 00:16:18;;;;;;;30.50;26.33;;;;;;;10.92;100.00;101599.47;2080975;28;20423;-63
2023/03/23 00:17:18;;;;;;;30.27;24.40;;;;;;;10.84;100.00;101598.75;2080896;28;20434;-63
2023/03/23 00:18:23;;;;;;;30.03;23.93;;;;;;;10.84;100.00;101592.41;2080681;28;20447;-63
2023/03/23 00:19:23;;;;;;;31.10;24.80;;;;;;;10.87;100.00;101584.03;2080970;28;20194;-63
2023/03/23 00:20:24;;;;;;;33.63;28.57;;;;;;;10.87;100.00;101583.28;2081133;28;20450;-63
2023/03/23 00:21:34;;;;;;;33.03;28.60;;;;;;;10.85;100.00;101591.19;2080966;28;20235;-63
2023/03/23 00:22:37;;;;;;;35.37;30.40;;;;;;;10.74;100.00;101568.34;2081126;28;20206;-63
2023/03/23 00:23:39;;;;;;;36.10;28.20;;;;;;;10.88;100.00;101593.16;2080815;28;20446;-63
2023/03/23 00:24:39;;;;;;;35.00;29.83;;;;;;;10.87;100.00;101586.81;2081116;28;20513;-63
2023/03/23 00:25:40;;;;;;;31.17;27.37;;;;;;;10.88;100.00;101596.75;2080260;28;20416;-63
2023/03/23 00:26:40;;;;;;;29.57;23.60;;;;;;;10.76;100.00;101577.06;2080752;28;20196;-63
2023/03/23 00:27:41;;;;;;;31.40;24.50;;;;;;;10.40;100.00;101523.13;2080440;28;20670;-63
2023/03/23 00:28:41;;;;;;;29.43;24.27;;;;;;;10.82;100.00;101603.91;2081075;28;20298;-63
2023/03/23 00:29:44;;;;;;;30.73;24.97;;;;;;;10.81;100.00;101590.47;2080677;28;20197;-63
2023/03/23 00:30:45;;;;;;;26.60;23.67;;;;;;;10.82;100.00;101592.81;2075018;28;20192;-63
2023/03/23 00:31:48;;;;;;;25.33;22.43;;;;;;;10.80;100.00;101591.66;2076929;28;20448;-63
2023/03/23 00:32:50;;;;;;;26.90;22.23;;;;;;;10.76;100.00;101593.69;2081171;28;20666;-63
2023/03/23 00:33:51;;;;;;;22.50;19.60;;;;;;;10.62;100.00;101577.97;2080849;28;20454;-63
2023/03/23 00:34:51;;;;;;;22.70;19.20;;;;;;;10.64;100.00;101583.88;2081082;28;20420;-63
2023/03/23 00:35:52;;;;;;;22.13;19.73;;;;;;;10.62;100.00;101579.94;2079967;28;20773;-63
2023/03/23 00:36:56;;;;;;;22.87;19.27;;;;;;;10.59;100.00;101575.22;2073298;28;20205;-63
2023/03/23 00:37:58;;;;;;;22.43;19.40;;;;;;;10.55;100.00;101580.78;2071420;28;20429;-63
2023/03/23 00:38:59;;;;;;;24.20;21.53;;;;;;;10.53;100.00;101580.44;2073023;28;20961;-63
2023/03/23 00:40:00;;;;;;;29.10;24.10;;;;;;;10.55;100.00;101580.03;2078339;28;20466;-63
2023/03/23 00:41:02;;;;;;;30.33;24.70;;;;;;;10.53;100.00;101587.94;2081180;28;20192;-63
2023/03/23 00:42:03;;;;;;;30.87;25.83;;;;;;;10.47;100.00;101579.28;2080661;28;20457;-63
2023/03/23 00:43:04;;;;;;;28.57;24.00;;;;;;;10.43;100.00;101589.63;2080854;28;20992;-63
2023/03/23 00:44:04;;;;;;;32.70;26.37;;;;;;;9.55;100.00;101453.75;2080466;28;20802;-63
2023/03/23 00:45:10;;;;;;;34.87;28.07;;;;;;;10.31;100.00;101584.53;2080385;28;20173;-63
2023/03/23 00:46:10;;;;;;;30.93;24.23;;;;;;;10.15;100.00;101564.88;2072513;28;20169;-63
2023/03/23 00:47:12;;;;;;;27.80;22.77;;;;;;;10.22;100.00;101581.47;2081125;28;20419;-63
2023/03/23 00:48:12;;;;;;;29.73;24.07;;;;;;;10.19;100.00;101587.81;2073098;28;20194;-62
2023/03/23 00:49:14;;;;;;;28.60;23.67;;;;;;;10.18;100.00;101585.44;2078885;28;20582;-63
2023/03/23 00:50:14;;;;;;;28.20;24.50;;;;;;;10.14;100.00;101581.94;2080603;28;20251;-63
2023/03/23 00:51:15;;;;;;;27.30;22.53;;;;;;;10.09;100.00;101585.13;2080850;28;20532;-63
2023/03/23 00:52:15;;;;;;;29.30;24.03;;;;;;;9.95;100.00;101569.31;2080521;28;20250;-63
2023/03/23 00:53:17;;;;;;;30.60;23.67;;;;;;;10.04;100.00;101588.31;2080725;28;20213;-63
2023/03/23 00:54:17;;;;;;;41.40;24.03;;;;;;;10.04;100.00;101593.84;2080606;28;20184;-63
2023/03/23 00:55:18;;;;;;;45.00;26.33;;;;;;;10.02;100.00;101583.16;2081078;28;21017;-63
2023/03/23 00:56:18;;;;;;;40.67;26.30;;;;;;;9.97;100.00;101585.53;2080631;28;20255;-63
2023/03/23 00:57:19;;;;;;;40.27;31.17;;;;;;;9.32;100.00;101489.44;2080260;28;20214;-63
2023/03/23 00:58:19;;;;;;;56.80;24.83;;;;;;;9.89;100.00;101584.78;2080252;28;20226;-63
2023/03/23 00:59:21;;;;;;;31.97;26.20;;;;;;;9.86;100.00;101591.16;2080570;28;20611;-63
2023/03/23 01:00:22;;;;;;;31.88;27.45;;;;;;;9.70;100.00;101565.94;2080675;28;20230;-63
2023/03/23 01:01:22;;;;;;;33.42;26.35;;;;;;;9.80;100.00;101590.00;2078228;28;20207;-63
2023/03/23 01:02:24;;;;;;;32.53;26.70;;;;;;;9.80;100.00;101586.44;2073437;28;20667;-63
2023/03/23 01:03:25;;;;;;;29.90;26.40;;;;;;;9.77;100.00;101587.25;2081065;28;20716;-62
2023/03/23 01:04:28;;;;;;;33.77;29.07;;;;;;;9.77;100.00;101590.00;2081051;28;20794;-63
2023/03/23 01:05:31;;;;;;;29.90;25.33;;;;;;;9.68;100.00;101581.38;2080488;28;20533;-63
2023/03/23 01:06:40;;;;;;;27.20;22.97;;;;;;;9.75;100.00;101584.91;2080823;28;20441;-63
2023/03/23 01:07:40;;;;;;;25.85;22.92;;;;;;;9.71;100.00;101586.09;2079714;28;20452;-63
2023/03/23 01:08:45;;;;;;;26.03;23.23;;;;;;;9.48;100.00;101571.97;2080993;28;20194;-63
2023/03/23 01:09:45;;;;;;;24.25;21.10;;;;;;;9.64;100.00;101589.66;2080362;28;20199;-62
2023/03/23 01:10:46;;;;;;;23.47;20.97;;;;;;;9.63;100.00;101584.56;2080639;28;20206;-63
2023/03/23 01:11:49;;;;;;;26.40;21.30;;;;;;;9.53;100.00;101580.63;2078337;28;20785;-62
2023/03/23 01:12:50;;;;;;;24.65;21.85;;;;;;;9.59;100.00;101589.31;2073981;28;20171;-63
2023/03/23 01:13:51;;;;;;;24.30;21.70;;;;;;;9.55;100.00;101591.31;2080151;28;20307;-63
2023/03/23 01:14:51;;;;;;;24.90;22.27;;;;;;;9.49;100.00;101588.16;2081280;28;20181;-63
2023/03/23 01:15:52;;;;;;;27.23;23.00;;;;;;;9.42;100.00;101582.66;2080352;28;20195;-63
2023/03/23 01:16:52;;;;;;;26.33;23.53;;;;;;;9.46;100.00;101583.44;2074452;28;20212;-63
2023/03/23 01:17:53;;;;;;;26.83;22.53;;;;;;;9.48;100.00;101583.81;2071707;28;20667;-63
2023/03/23 01:18:53;;;;;;;27.63;23.07;;;;;;;9.50;100.00;101587.00;2076246;28;20271;-63
2023/03/23 01:19:54;;;;;;;26.50;22.37;;;;;;;9.51;100.00;101585.00;2080329;28;20263;-63
2023/03/23 01:20:55;;;;;;;26.27;22.83;;;;;;;9.53;100.00;101588.94;2080931;28;20170;-63
2023/03/23 01:21:55;;;;;;;24.77;22.00;;;;;;;9.09;100.00;101519.59;2080321;28;20582;-63
2023/03/23 01:23:00;;;;;;;26.60;21.67;;;;;;;9.56;100.00;101582.63;2081154;28;20179;-63
2023/03/23 01:24:00;;;;;;;27.27;22.35;;;;;;;9.57;100.00;101591.69;2072663;28;20181;-63
2023/03/23 01:25:01;;;;;;;23.87;21.33;;;;;;;9.57;100.00;101586.94;2079725;28;20267;-63
2023/03/23 01:26:16;;;;;;;24.30;21.00;;;;;;;9.56;100.00;101584.56;2074406;28;20610;-63
2023/03/23 01:27:16;;;;;;;26.05;21.88;;;;;;;9.57;100.00;101592.47;2078720;28;20200;-63
2023/03/23 01:28:17;;;;;;;30.33;24.77;;;;;;;9.60;100.00;101590.91;2080003;28;20197;-63
2023/03/23 01:29:17;;;;;;;31.23;25.27;;;;;;;9.44;100.00;101568.44;2080690;28;20188;-63
2023/03/23 01:30:17;;;;;;;30.33;24.53;;;;;;;9.03;100.00;101506.56;2080689;28;20271;-62
2023/03/23 01:31:21;;;;;;;32.77;25.60;;;;;;;9.46;100.00;101585.41;2080366;28;20728;-63
2023/03/23 01:32:21;;;;;;;29.20;22.90;;;;;;;9.29;100.00;101558.63;2080455;28;20166;-63
2023/03/23 01:33:21;;;;;;;26.43;22.03;;;;;;;9.36;100.00;101583.47;2080209;28;20182;-63
2023/03/23 01:34:22;;;;;;;36.07;21.97;;;;;;;9.28;100.00;101588.25;2080984;28;20230;-63
2023/03/23 01:35:22;;;;;;;94.80;17.73;;;;;;;9.19;100.00;101589.88;2080306;28;20661;-63
2023/03/23 01:36:28;;;;;;;43.80;17.50;;;;;;;9.13;100.00;101592.22;2080469;28;20193;-63
2023/03/23 01:37:30;;;;;;;20.38;17.48;;;;;;;9.06;100.00;101583.97;2073966;28;20199;-63
2023/03/23 01:38:31;;;;;;;21.17;17.83;;;;;;;9.07;100.00;101587.53;2076610;28;20646;-63
2023/03/23 01:39:31;;;;;;;63.80;17.10;;;;;;;9.06;100.00;101597.00;2080129;28;20556;-63
2023/03/23 01:40:31;;;;;;;21.07;18.90;;;;;;;9.04;100.00;101594.66;2080684;28;20266;-63
2023/03/23 01:41:34;;;;;;;19.17;16.27;;;;;;;9.01;100.00;101595.44;2080253;28;20523;-62
2023/03/23 01:42:37;;;;;;;17.13;15.32;;;;;;;9.02;100.00;101597.00;2080064;28;20212;-63
2023/03/23 01:43:54;;;;;;;22.73;19.85;;;;;;;9.00;100.00;101591.09;2080741;28;20169;-63
2023/03/23 01:44:54;;;;;;;23.27;18.65;;;;;;;9.00;100.00;101596.63;2072182;28;20626;-63
2023/03/23 01:45:58;;;;;;;20.57;18.37;;;;;;;9.00;100.00;101595.81;2079695;28;20211;-63
2023/03/23 01:46:59;;;;;;;23.80;19.60;;;;;;;8.11;100.00;101447.13;2080256;28;20205;-63
2023/03/23 01:48:27;;;;;;;23.70;19.60;;;;;;;9.03;100.00;101593.03;2079810;28;20646;-63
2023/03/23 01:49:33;;;;;;;21.48;18.02;;;;;;;9.05;100.00;101593.44;2073479;28;20170;-63
2023/03/23 01:50:40;;;;;;;15.98;14.27;;;;;;;9.06;100.00;101594.22;2080451;28;20260;-63
2023/03/23 01:51:46;;;;;;;20.83;14.38;;;;;;;9.00;100.00;101593.84;2079352;28;20185;-63
2023/03/23 01:52:47;;;;;;;29.13;17.88;;;;;;;9.00;100.00;101588.31;2072861;28;20173;-63
2023/03/23 01:54:01;;;;;;;26.20;20.57;;;;;;;8.49;100.00;101515.38;2080536;28;20189;-63
2023/03/23 01:55:03;;;;;;;27.75;22.45;;;;;;;8.61;100.00;101559.94;2072217;28;20580;-63
2023/03/23 01:56:06;;;;;;;31.00;23.60;;;;;;;8.93;100.00;101596.66;2072182;28;20239;-63
2023/03/23 01:57:13;;;;;;;32.15;21.98;;;;;;;9.00;100.00;101604.13;2072764;28;20201;-63
2023/03/23 01:58:16;;;;;;;28.70;20.58;;;;;;;9.05;100.00;101595.41;2079081;28;20283;-63
2023/03/23 01:59:16;;;;;;;27.80;22.63;;;;;;;9.10;100.00;101600.53;2073594;28;20197;-63
2023/03/23 02:00:17;;;;;;;29.10;22.77;;;;;;;9.09;100.00;101599.78;2077706;28;20284;-63
2023/03/23 02:01:18;;;;;;;28.17;23.57;;;;;;;9.14;100.00;101593.03;2080259;28;20243;-63
2023/03/23 02:02:24;;;;;;;37.33;23.33;;;;;;;9.17;100.00;101601.31;2080186;28;20192;-63
2023/03/23 02:03:25;;;;;;;27.95;21.40;;;;;;;9.21;100.00;101598.53;2080128;28;29988;-63
2023/03/23 02:04:25;;;;;;;28.37;19.90;;;;;;;9.24;100.00;101595.78;2080559;28;20660;-63
2023/03/23 02:05:37;;;;;;;26.30;18.90;;;;;;;8.47;100.00;101473.56;2080312;28;20681;-63
2023/03/23 02:06:38;;;;;;;25.17;19.10;;;;;;;9.31;100.00;101592.19;2080527;28;20205;-63
2023/03/23 02:07:39;;;;;;;32.88;20.27;;;;;;;9.32;100.00;101597.31;2079686;28;20791;-63
2023/03/23 02:08:43;;;;;;;35.37;22.03;;;;;;;9.33;100.00;101584.28;2080394;28;20622;-63
2023/03/23 02:09:44;;;;;;;29.60;19.92;;;;;;;9.35;100.00;101585.47;2080183;28;20228;-62
2023/03/23 02:10:44;;;;;;;26.53;19.83;;;;;;;9.36;100.00;101597.31;2080356;28;20195;-63
2023/03/23 02:11:46;;;;;;;22.33;18.17;;;;;;;9.39;100.00;101590.97;2080020;28;20225;-63
2023/03/23 02:12:47;;;;;;;22.73;16.92;;;;;;;9.37;100.00;101585.84;2080298;28;20200;-63
2023/03/23 02:13:49;;;;;;;23.97;16.33;;;;;;;9.37;100.00;101593.38;2080043;28;20200;-63
2023/03/23 02:14:49;;;;;;;21.80;16.67;;;;;;;9.38;100.00;101584.66;2080455;28;20664;-63
2023/03/23 02:16:35;;;;;;;17.73;15.87;;;;;;;9.35;100.00;101581.91;2079879;28;20550;-63
2023/03/23 02:17:35;;;;;;;23.02;13.45;;;;;;;9.31;100.00;101581.13;2076432;28;20678;-63
2023/03/23 02:18:55;;;;;;;16.87;12.83;;;;;;;9.34;100.00;101589.44;2080299;28;20621;-63
2023/03/23 02:20:17;;;;;;;19.20;13.15;;;;;;;9.26;100.00;101576.00;2062595;28;20632;-63
2023/03/23 02:21:39;;;;;;;19.42;13.68;;;;;;;9.37;100.00;101591.38;2080358;28;20565;-63
2023/03/23 02:23:01;;;;;;;20.80;13.77;;;;;;;9.39;100.00;101589.00;2072244;28;20179;-63
2023/03/23 02:24:13;;;;;;;20.35;12.95;;;;;;;9.40;100.00;101595.31;2078225;28;20193;-62
2023/03/23 02:25:38;;;;;;;18.77;13.38;;;;;;;9.40;100.00;101592.56;2074380;28;20194;-62
2023/03/23 02:26:53;;;;;;;20.48;14.52;;;;;;;9.41;100.00;101596.88;2080483;28;20570;-62
2023/03/23 02:28:17;;;;;;;22.83;14.50;;;;;;;9.45;100.00;101594.91;2079140;28;20224;-63
2023/03/23 02:29:25;;;;;;;25.33;15.65;;;;;;;9.47;100.00;101600.81;2080093;28;20580;-63
2023/03/23 02:31:04;;;;;;;21.98;17.40;;;;;;;9.49;100.00;101606.75;2074534;28;20227;-63
2023/03/23 02:32:27;;;;;;;27.70;17.50;;;;;;;9.48;100.00;101594.88;2058572;28;20201;-63
2023/03/23 02:33:29;;;;;;;23.85;17.73;;;;;;;9.47;100.00;101589.75;2073768;28;20225;-63
2023/03/23 02:34:53;;;;;;;29.67;18.50;;;;;;;9.55;100.00;101603.19;2076697;28;20670;-63
2023/03/23 02:35:58;;;;;;;30.20;18.17;;;;;;;9.59;100.00;101606.69;2081079;28;20685;-63
2023/03/23 02:37:09;;;;;;;26.90;17.40;;;;;;;9.64;100.00;101602.75;2077495;28;20709;-63
2023/03/23 02:38:42;;;;;;;29.08;17.85;;;;;;;9.63;100.00;101598.41;2077148;28;20202;-63
2023/03/23 02:40:17;;;;;;;25.65;17.42;;;;;;;9.62;100.00;101600.38;2063967;28;20699;-63
2023/03/23 02:41:21;;;;;;;19.50;17.17;;;;;;;9.66;100.00;101605.88;2079063;28;20197;-63
2023/03/23 02:42:28;;;;;;;22.67;17.07;;;;;;;8.81;100.00;101477.44;2081735;28;20183;-63
2023/03/23 02:43:36;;;;;;;31.98;18.63;;;;;;;9.63;100.00;101603.94;2081496;28;20986;-63
2023/03/23 02:44:41;;;;;;;24.92;17.13;;;;;;;9.65;100.00;101613.41;2082080;28;20220;-63
2023/03/23 02:45:44;;;;;;;26.75;17.85;;;;;;;9.68;100.00;101614.59;2081507;28;20657;-63
2023/03/23 02:46:45;;;;;;;24.58;18.02;;;;;;;9.67;100.00;101613.78;2082306;28;20661;-62
2023/03/23 02:47:49;;;;;;;29.33;18.83;;;;;;;9.68;100.00;101609.81;2080824;28;20214;-63
2023/03/23 02:48:51;;;;;;;33.30;19.37;;;;;;;9.65;100.00;101602.34;2081910;28;20214;-63
2023/03/23 02:49:54;;;;;;;32.75;20.23;;;;;;;9.74;100.00;101615.75;2081460;28;20454;-63
2023/03/23 02:50:56;;;;;;;33.88;19.45;;;;;;;9.74;100.00;101618.50;2081941;28;20186;-63
2023/03/23 02:51:59;;;;;;;30.85;19.15;;;;;;;9.76;100.00;101619.69;2081442;28;20207;-63
2023/03/23 02:53:01;;;;;;;33.70;20.73;;;;;;;9.77;100.00;101618.50;2081534;28;20196;-63
2023/03/23 02:54:04;;;;;;;33.53;19.50;;;;;;;9.75;100.00;101617.31;2081420;28;20180;-63
2023/03/23 02:55:05;;;;;;;30.67;19.80;;;;;;;9.80;100.00;101633.50;2080716;28;20425;-63
2023/03/23 02:56:09;;;;;;;32.33;19.57;;;;;;;9.78;100.00;101624.81;2073557;28;20537;-63
2023/03/23 02:57:09;;;;;;;41.67;21.17;;;;;;;9.75;100.00;101629.19;2082164;28;20473;-62
2023/03/23 02:58:11;;;;;;;34.80;20.20;;;;;;;9.75;100.00;101618.13;2081056;28;20447;-63
2023/03/23 02:59:11;;;;;;;32.60;20.47;;;;;;;9.74;100.00;101624.03;2081793;28;20640;-63
2023/03/23 03:00:14;;;;;;;32.00;20.70;;;;;;;9.77;100.00;101632.34;2081361;28;20930;-62
2023/03/23 03:01:38;;;;;;;36.33;21.07;;;;;;;9.81;100.00;101632.31;2076896;28;20194;-63
2023/03/23 03:02:42;;;;;;;33.63;20.47;;;;;;;9.80;100.00;101619.66;2075011;28;20990;-63
2023/03/23 03:03:43;;;;;;;31.80;20.40;;;;;;;9.79;100.00;101624.41;2081283;28;20538;-63
2023/03/23 03:04:54;;;;;;;40.40;21.30;;;;;;;9.78;100.00;101628.38;2081800;28;20441;-62
2023/03/23 03:06:28;;;;;;;33.30;19.80;;;;;;;9.81;100.00;101621.22;2081372;28;20747;-63
2023/03/23 03:07:49;;;;;;;33.83;19.20;;;;;;;9.80;100.00;101630.72;2063970;28;20460;-63
2023/03/23 03:09:02;;;;;;;33.35;19.23;;;;;;;9.07;100.00;101513.66;2074380;28;20981;-63
2023/03/23 03:10:17;;;;;;;33.20;19.50;;;;;;;9.78;100.00;101620.06;2081425;28;20253;-63
2023/03/23 03:11:25;;;;;;;31.77;19.47;;;;;;;9.00;100.00;101507.34;2079238;28;20409;-63
2023/03/23 03:12:57;;;;;;;38.13;20.27;;;;;;;9.82;100.00;101637.44;2073491;28;20413;-62
2023/03/23 03:13:58;;;;;;;45.35;19.55;;;;;;;9.82;100.00;101637.44;2078224;28;20942;-63
2023/03/23 03:15:23;;;;;;;36.70;20.13;;;;;;;9.85;100.00;101638.63;2081825;28;20682;-63
2023/03/23 03:16:43;;;;;;;37.55;19.60;;;;;;;9.85;100.00;101639.41;2081563;28;20338;-63
2023/03/23 03:17:54;;;;;;;34.05;19.45;;;;;;;9.82;100.00;101648.53;2080467;28;20205;-62
2023/03/23 03:19:04;;;;;;;37.30;19.77;;;;;;;9.83;100.00;101646.53;2081952;28;20628;-63
2023/03/23 03:20:10;;;;;;;46.83;19.83;;;;;;;9.88;100.00;101649.69;2072746;28;20446;-63
2023/03/23 03:21:14;;;;;;;51.95;20.25;;;;;;;8.96;100.00;101490.00;2081209;28;20445;-62
2023/03/23 03:22:15;;;;;;;43.75;21.23;;;;;;;9.92;100.00;101642.16;2081450;28;20199;-63
2023/03/23 03:23:17;;;;;;;41.13;20.57;;;;;;;9.93;100.00;101642.91;2075810;28;20191;-63
2023/03/23 03:24:20;;;;;;;43.30;20.80;;;;;;;9.97;100.00;101646.47;2078142;28;20546;-62
2023/03/23 03:25:22;;;;;;;37.77;20.97;;;;;;;9.65;100.00;101588.50;2077344;28;20451;-63
2023/03/23 03:26:26;;;;;;;38.55;21.70;;;;;;;9.97;100.00;101638.97;2076401;28;20457;-63
2023/03/23 03:27:27;;;;;;;44.47;21.40;;;;;;;10.06;100.00;101652.38;2078729;28;20175;-63
2023/03/23 03:28:28;;;;;;;35.28;19.52;;;;;;;9.21;100.00;101516.38;2074074;28;20414;-63
2023/03/23 03:29:33;;;;;;;37.53;19.63;;;;;;;10.11;100.00;101646.44;2081224;28;20446;-62
2023/03/23 03:30:36;;;;;;;44.42;20.08;;;;;;;9.75;100.00;101593.19;2073794;28;20265;-63
2023/03/23 03:31:45;;;;;;;38.60;20.13;;;;;;;10.12;100.00;101646.03;2081426;28;20230;-62
2023/03/23 03:32:50;;;;;;;39.53;20.40;;;;;;;10.13;100.00;101647.59;2081678;28;20435;-63
2023/03/23 03:33:51;;;;;;;34.40;18.93;;;;;;;10.15;100.00;101652.75;2081353;28;20453;-63
2023/03/23 03:34:52;;;;;;;42.97;18.97;;;;;;;10.16;100.00;101655.13;2081481;28;20447;-62
2023/03/23 03:35:57;;;;;;;28.27;18.27;;;;;;;10.15;100.00;101656.28;2081013;28;20256;-63
2023/03/23 03:36:59;;;;;;;46.28;19.45;;;;;;;10.14;100.00;101653.94;2081568;28;20215;-63
2023/03/23 03:38:06;;;;;;;35.90;19.50;;;;;;;10.14;100.00;101654.72;2080449;28;20203;-63
2023/03/23 03:39:09;;;;;;;43.40;18.80;;;;;;;10.18;100.00;101657.44;2081826;28;20457;-63
2023/03/23 03:40:16;;;;;;;32.97;18.27;;;;;;;9.41;100.00;101545.13;2081013;28;20570;-63
2023/03/23 03:41:18;;;;;;;41.40;18.83;;;;;;;10.18;100.00;101660.22;2081145;28;21002;-63
2023/03/23 03:42:19;;;;;;;34.83;18.57;;;;;;;10.04;100.00;101652.78;2080561;28;20841;-62
2023/03/23 03:43:20;;;;;;;44.93;18.03;;;;;;;10.18;100.00;101658.25;2080887;28;20477;-63
2023/03/23 03:44:21;;;;;;;43.13;18.43;;;;;;;9.48;100.00;101536.78;2081849;28;20454;-63
2023/03/23 03:45:21;;;;;;;39.27;19.47;;;;;;;10.22;100.00;101647.16;2081242;28;20647;-62
2023/03/23 03:46:26;;;;;;;33.53;19.43;;;;;;;10.23;100.00;101654.25;2075343;28;20584;-63
2023/03/23 03:47:27;;;;;;;39.50;18.63;;;;;;;10.25;100.00;101654.66;2077817;28;20192;-63
2023/03/23 03:48:27;;;;;;;42.97;19.43;;;;;;;9.80;100.00;101586.44;2076863;28;20450;-63
2023/03/23 03:49:27;;;;;;;51.87;20.17;;;;;;;10.23;100.00;101657.03;2073003;28;20190;-63
2023/03/23 03:50:28;;;;;;;43.10;18.97;;;;;;;10.24;100.00;101656.63;2075032;28;20195;-63
2023/03/23 03:51:30;;;;;;;47.00;20.07;;;;;;;10.26;100.00;101659.78;2080894;28;20252;-62
2023/03/23 03:52:31;;;;;;;56.30;19.20;;;;;;;10.25;100.00;101660.97;2081670;28;20183;-63
2023/03/23 03:53:32;;;;;;;103.23;21.93;;;;;;;10.27;100.00;101661.38;2081292;28;20464;-63
2023/03/23 03:54:32;;;;;;;69.93;19.87;;;;;;;10.27;100.00;101666.91;2081233;28;20443;-63
2023/03/23 03:55:38;;;;;;;51.87;19.50;;;;;;;10.28;100.00;101662.94;2080951;28;20655;-63
2023/03/23 03:56:40;;;;;;;72.20;21.53;;;;;;;10.28;100.00;101659.38;2080553;28;20379;-62
2023/03/23 03:57:41;;;;;;;56.07;20.47;;;;;;;10.28;100.00;101656.59;2075349;28;20444;-62
2023/03/23 03:58:42;;;;;;;61.33;20.03;;;;;;;9.54;100.00;101548.22;2067554;28;20433;-63
2023/03/23 03:59:43;;;;;;;68.60;22.27;;;;;;;10.27;100.00;101661.38;2072361;28;20181;-63
2023/03/23 04:00:47;;;;;;;48.03;20.57;;;;;;;10.26;100.00;101647.91;2081200;28;20496;-63
2023/03/23 04:01:53;;;;;;;38.93;19.93;;;;;;;10.33;100.00;101656.19;2080751;28;20442;-63
2023/03/23 04:02:54;;;;;;;39.60;19.80;;;;;;;10.00;100.00;101607.66;2081689;28;20405;-63
2023/03/23 04:03:55;;;;;;;49.90;20.67;;;;;;;10.33;100.00;101656.97;2081065;28;20532;-63
2023/03/23 04:04:55;;;;;;;92.73;22.47;;;;;;;10.33;100.00;101654.22;2081172;28;20455;-63
2023/03/23 04:05:56;;;;;;;113.93;22.80;;;;;;;10.35;100.00;101653.81;2081035;28;20200;-63
2023/03/23 04:06:57;;;;;;;60.57;22.10;;;;;;;10.23;100.00;101638.44;2081410;28;20192;-63
2023/03/23 04:08:01;;;;;;;119.33;22.60;;;;;;;10.29;100.00;101647.88;2080141;28;20644;-63
2023/03/23 04:09:05;;;;;;;68.47;23.33;;;;;;;10.34;100.00;101653.00;2081370;28;20453;-63
2023/03/23 04:10:07;;;;;;;142.53;23.27;;;;;;;10.34;100.00;101663.28;2080975;28;20473;-62
2023/03/23 04:11:09;;;;;;;83.03;22.70;;;;;;;9.52;100.00;101542.28;2081257;28;20429;-62
2023/03/23 04:12:10;;;;;;;85.97;24.30;;;;;;;10.31;100.00;101655.81;2080808;28;20894;-63
2023/03/23 04:13:10;;;;;;;85.20;23.40;;;;;;;10.31;100.00;101653.81;2081659;28;20419;-63
2023/03/23 04:14:10;;;;;;;67.17;23.27;;;;;;;10.33;100.00;101661.72;2073707;28;20747;-62
2023/03/23 04:15:11;;;;;;;68.80;22.17;;;;;;;10.06;100.00;101613.63;2072763;28;20564;-63
2023/03/23 04:16:11;;;;;;;98.50;22.80;;;;;;;10.35;100.00;101664.88;2078048;28;20238;-63
2023/03/23 04:17:14;;;;;;;113.27;24.07;;;;;;;10.35;100.00;101656.56;2080681;28;20261;-62
2023/03/23 04:18:17;;;;;;;92.70;25.53;;;;;;;9.91;100.00;101590.75;2080377;28;20567;-62
2023/03/23 04:19:18;;;;;;;80.80;23.30;;;;;;;10.36;100.00;101663.69;2080868;28;20924;-63
2023/03/23 04:20:19;;;;;;;148.33;25.17;;;;;;;10.33;100.00;101662.50;2081009;28;20856;-63
2023/03/23 04:21:19;;;;;;;115.97;26.40;;;;;;;10.15;100.00;101649.97;2080848;28;20267;-63
2023/03/23 04:22:20;;;;;;;93.67;26.23;;;;;;;10.34;100.00;101668.81;2081584;28;20263;-63
2023/03/23 04:23:21;;;;;;;152.63;26.43;;;;;;;10.34;100.00;101672.41;2081146;28;20181;-63
2023/03/23 04:24:23;;;;;;;160.77;27.57;;;;;;;10.33;100.00;101668.06;2074969;28;20567;-62
2023/03/23 04:25:23;;;;;;;78.30;25.77;;;;;;;10.23;100.00;101655.06;2077935;28;20435;-62
2023/03/23 04:26:28;;;;;;;81.27;26.43;;;;;;;10.33;100.00;101665.28;2077082;28;20443;-63
2023/03/23 04:27:28;;;;;;;79.00;26.97;;;;;;;10.34;100.00;101663.28;2072249;28;20196;-63
2023/03/23 04:28:33;;;;;;;60.97;24.37;;;;;;;9.91;100.00;101601.00;2074830;28;20981;-63
2023/03/23 04:29:33;;;;;;;108.80;26.27;;;;;;;10.39;100.00;101683.06;2080909;28;20578;-63
2023/03/23 04:30:34;;;;;;;182.23;28.40;;;;;;;10.38;100.00;101664.06;2081095;28;20444;-63
2023/03/23 04:31:35;;;;;;;148.43;25.70;;;;;;;10.28;100.00;101671.25;2081250;28;20182;-63
2023/03/23 04:32:40;;;;;;;136.18;24.90;;;;;;;10.15;100.00;101670.13;2080982;28;20201;-62
2023/03/23 04:33:41;;;;;;;176.67;28.17;;;;;;;10.19;100.00;101672.91;2080781;28;20194;-62
2023/03/23 04:34:42;;;;;;;141.07;28.33;;;;;;;10.17;100.00;101669.72;2081049;28;20955;-63
2023/03/23 04:35:45;;;;;;;204.07;29.83;;;;;;;9.66;100.00;101603.91;2080420;28;20198;-63
2023/03/23 04:36:46;;;;;;;203.00;31.40;;;;;;;10.13;100.00;101666.19;2081156;28;20478;-63
2023/03/23 04:37:47;;;;;;;165.33;28.80;;;;;;;10.11;100.00;101663.03;2079792;28;20675;-62
2023/03/23 04:38:50;;;;;;;177.33;29.57;;;;;;;10.13;100.00;101671.72;2081177;28;20208;-63
2023/03/23 04:39:59;;;;;;;192.07;30.13;;;;;;;10.13;100.00;101674.50;2080356;28;20862;-63
2023/03/23 04:41:01;;;;;;;202.53;29.40;;;;;;;10.10;100.00;101672.56;2081122;28;20497;-63
2023/03/23 04:42:03;;;;;;;134.33;27.97;;;;;;;9.58;100.00;101601.59;2080418;28;20421;-62
2023/03/23 04:43:05;;;;;;;162.50;30.50;;;;;;;10.04;100.00;101677.72;2081311;28;20612;-63
2023/03/23 04:44:07;;;;;;;165.43;30.38;;;;;;;9.99;100.00;101700.25;2080676;28;20452;-63
2023/03/23 04:45:08;;;;;;;181.15;30.77;;;;;;;9.94;100.00;101680.50;2081262;28;20203;-63
2023/03/23 04:46:09;;;;;;;158.50;28.92;;;;;;;9.92;100.00;101682.88;2080596;28;20281;-63
2023/03/23 04:47:09;;;;;;;181.00;30.33;;;;;;;9.93;100.00;101687.22;2075450;28;20199;-63
2023/03/23 04:48:10;;;;;;;136.10;29.13;;;;;;;9.95;100.00;101682.09;2075627;28;20650;-63
2023/03/23 04:49:14;;;;;;;142.03;30.73;;;;;;;9.66;100.00;101636.31;2080780;28;20202;-62
2023/03/23 04:50:14;;;;;;;171.43;30.80;;;;;;;9.73;100.00;101662.00;2078683;28;20514;-63